Time;durP1;ratioP1;P1;durP2;ratioP2;P2;SDS_P1;SDS_P2;PMS_P1;PMS_P2;Temp;Humidity;BMP_temperature;BMP_pressure;BME280_temperature;BME280_humidity;BME280_pressure;Samples;Min_cycle;Max_cycle;Signal;HPM_P1;HPM_P2
2023/08/20 00:00:11;;;;;;;11.82;10.43;;;22.30;99.90;;;;;;5062343;28;20033;-78
2023/08/20 00:02:40;;;;;;;12.45;11.35;;;22.30;99.90;;;;;;5065399;28;20446;-78
2023/08/20 00:05:07;;;;;;;16.17;12.57;;;22.30;99.90;;;;;;5069216;28;20029;-78
2023/08/20 00:07:33;;;;;;;16.60;12.43;;;22.20;99.90;;;;;;5071935;28;20447;-78
2023/08/20 00:09:58;;;;;;;15.27;12.43;;;22.10;99.90;;;;;;5067473;28;20025;-78
2023/08/20 00:12:25;;;;;;;15.68;13.73;;;22.00;99.90;;;;;;5058913;28;20357;-78
2023/08/20 00:14:57;;;;;;;15.43;13.10;;;21.90;99.90;;;;;;5052597;28;20056;-79
2023/08/20 00:17:24;;;;;;;14.20;12.70;;;21.90;99.90;;;;;;5060602;28;20025;-78
2023/08/20 00:19:50;;;;;;;15.27;13.77;;;21.80;99.90;;;;;;5057869;28;20029;-78
2023/08/20 00:22:16;;;;;;;15.05;13.45;;;21.90;99.90;;;;;;5061170;28;20487;-78
2023/08/20 00:24:42;;;;;;;14.23;12.82;;;21.90;99.90;;;;;;5054300;28;20634;-78
2023/08/20 00:27:08;;;;;;;17.85;13.73;;;21.90;99.90;;;;;;5059523;28;20530;-77
2023/08/20 00:29:34;;;;;;;17.55;14.55;;;21.90;99.90;;;;;;5059201;28;20032;-77
2023/08/20 00:31:59;;;;;;;17.40;15.07;;;22.00;99.90;;;;;;5053972;28;20032;-77
2023/08/20 00:34:25;;;;;;;18.63;14.07;;;22.00;99.90;;;;;;5078532;28;20043;-77
2023/08/20 00:36:50;;;;;;;19.77;14.80;;;22.10;99.90;;;;;;5059894;28;20020;-77
2023/08/20 00:39:16;;;;;;;18.52;16.58;;;22.10;99.90;;;;;;5062431;28;20032;-77
2023/08/20 00:41:41;;;;;;;23.08;17.02;;;22.10;99.90;;;;;;5059018;28;20021;-77
2023/08/20 00:44:07;;;;;;;18.73;15.60;;;22.00;99.90;;;;;;5063997;28;20463;-77
2023/08/20 00:46:32;;;;;;;19.30;16.45;;;22.00;99.90;;;;;;5066182;28;20495;-77
2023/08/20 00:48:58;;;;;;;25.55;16.25;;;22.00;99.90;;;;;;5051031;28;20021;-78
2023/08/20 00:51:25;;;;;;;21.95;17.35;;;21.90;99.90;;;;;;5056727;28;20392;-77
2023/08/20 00:53:51;;;;;;;22.75;17.92;;;21.90;99.90;;;;;;5050601;28;20033;-77
2023/08/20 00:56:16;;;;;;;19.08;16.48;;;21.80;99.90;;;;;;5051575;28;20040;-77
2023/08/20 00:58:43;;;;;;;21.48;17.17;;;21.80;99.90;;;;;;5059759;28;20032;-77
2023/08/20 01:01:09;;;;;;;19.95;16.00;;;21.80;99.90;;;;;;5060431;28;20158;-77
2023/08/20 01:03:34;;;;;;;16.98;15.05;;;21.90;99.90;;;;;;5059373;28;20095;-77
2023/08/20 01:06:14;;;;;;;22.67;16.92;;;21.90;99.90;;;;;;5052085;28;20414;-77
2023/08/20 01:08:40;;;;;;;20.63;16.45;;;21.90;99.90;;;;;;5056520;28;20032;-77
2023/08/20 01:11:30;;;;;;;20.23;17.35;;;21.80;99.90;;;;;;5058205;28;20028;-78
2023/08/20 01:13:57;;;;;;;22.45;16.60;;;21.90;99.90;;;;;;5052699;28;20021;-78
2023/08/20 01:16:23;;;;;;;23.58;15.73;;;21.90;99.90;;;;;;5061632;28;20025;-78
2023/08/20 01:18:48;;;;;;;19.80;15.88;;;21.90;99.90;;;;;;5061149;28;20032;-77
2023/08/20 01:21:37;;;;;;;18.83;16.50;;;21.90;99.90;;;;;;5051315;28;20031;-77
2023/08/20 01:24:15;;;;;;;25.17;16.67;;;21.90;99.90;;;;;;5063573;28;20047;-77
2023/08/20 01:27:05;;;;;;;19.38;16.42;;;22.00;99.90;;;;;;5080056;28;20026;-77
2023/08/20 01:29:32;;;;;;;22.05;15.38;;;21.90;99.90;;;;;;5050546;28;20562;-77
2023/08/20 01:31:58;;;;;;;18.52;14.90;;;21.90;99.90;;;;;;5059930;28;20615;-77
2023/08/20 01:34:24;;;;;;;20.42;15.90;;;21.90;99.90;;;;;;5067989;28;20021;-78
2023/08/20 01:36:49;;;;;;;17.23;15.38;;;21.90;99.90;;;;;;5062013;28;20036;-78
2023/08/20 01:39:15;;;;;;;24.98;15.98;;;21.90;99.90;;;;;;5068806;28;20044;-78
2023/08/20 01:41:41;;;;;;;20.48;16.45;;;21.90;99.90;;;;;;5061046;28;20028;-78
2023/08/20 01:44:07;;;;;;;21.75;16.42;;;21.80;99.90;;;;;;5062289;28;20024;-78
2023/08/20 01:46:32;;;;;;;17.73;13.75;;;21.80;99.90;;;;;;5065193;28;20055;-79
2023/08/20 01:48:58;;;;;;;22.63;16.80;;;21.80;99.90;;;;;;5061918;28;20059;-78
2023/08/20 01:51:24;;;;;;;24.25;17.35;;;21.80;99.90;;;;;;5063303;28;20028;-78
2023/08/20 01:53:49;;;;;;;23.13;15.10;;;21.80;99.90;;;;;;5060800;28;20025;-78
2023/08/20 01:56:15;;;;;;;22.67;17.05;;;21.70;99.90;;;;;;5066084;28;20032;-78
2023/08/20 01:58:41;;;;;;;20.23;16.00;;;21.70;99.90;;;;;;5072348;28;20036;-78
2023/08/20 02:01:07;;;;;;;21.25;17.13;;;21.70;99.90;;;;;;5070420;28;20497;-78
2023/08/20 02:03:32;;;;;;;22.15;18.13;;;21.70;99.90;;;;;;5073313;28;20475;-78
2023/08/20 02:05:58;;;;;;;23.27;17.60;;;21.70;99.90;;;;;;5069029;28;20103;-78
2023/08/20 02:08:23;;;;;;;25.33;19.25;;;21.60;99.90;;;;;;5068803;28;20032;-78
2023/08/20 02:10:49;;;;;;;22.98;18.23;;;21.60;99.90;;;;;;5067114;28;20391;-78
2023/08/20 02:13:14;;;;;;;22.92;19.27;;;21.60;99.90;;;;;;5070856;28;20379;-77
2023/08/20 02:15:40;;;;;;;18.95;16.52;;;21.50;99.90;;;;;;5068573;28;20426;-78
2023/08/20 02:18:05;;;;;;;19.33;16.52;;;21.60;99.90;;;;;;5066973;28;20475;-78
2023/08/20 02:20:31;;;;;;;20.88;17.60;;;21.60;99.90;;;;;;5071643;28;20032;-78
2023/08/20 02:22:57;;;;;;;22.52;18.92;;;21.60;99.90;;;;;;5069823;28;20028;-78
2023/08/20 02:25:24;;;;;;;23.80;17.95;;;21.60;99.90;;;;;;5064122;28;20070;-77
2023/08/20 02:27:50;;;;;;;21.95;17.85;;;21.50;99.90;;;;;;5066052;28;20024;-77
2023/08/20 02:30:15;;;;;;;26.42;18.35;;;21.50;99.90;;;;;;5060534;28;20035;-77
2023/08/20 02:32:41;;;;;;;21.58;15.30;;;21.50;99.90;;;;;;5064083;28;20024;-77
2023/08/20 02:35:07;;;;;;;23.73;17.40;;;21.50;99.90;;;;;;5065920;28;20226;-77
2023/08/20 02:37:32;;;;;;;24.85;15.73;;;21.60;99.90;;;;;;5073063;28;20033;-77
2023/08/20 02:39:58;;;;;;;20.13;16.15;;;21.70;99.90;;;;;;5070009;28;20040;-77
2023/08/20 02:42:23;;;;;;;24.05;17.25;;;21.70;99.90;;;;;;5060108;28;20478;-77
2023/08/20 02:44:49;;;;;;;20.38;15.38;;;21.80;99.90;;;;;;5061452;28;20036;-77
2023/08/20 02:47:15;;;;;;;24.67;17.30;;;21.70;99.90;;;;;;5063712;28;20475;-77
2023/08/20 02:49:40;;;;;;;19.45;14.45;;;21.70;99.90;;;;;;5064071;28;20021;-77
2023/08/20 02:52:06;;;;;;;20.98;15.93;;;21.70;99.90;;;;;;5056699;28;20107;-77
2023/08/20 02:54:32;;;;;;;23.65;16.85;;;21.70;99.90;;;;;;5063095;28;20021;-77
2023/08/20 02:56:58;;;;;;;19.58;16.02;;;21.70;99.90;;;;;;5060916;28;20162;-77
2023/08/20 02:59:23;;;;;;;22.08;16.02;;;21.60;99.90;;;;;;5070066;28;20436;-77
2023/08/20 03:01:49;;;;;;;20.60;15.27;;;21.60;99.90;;;;;;5058369;28;20120;-77
2023/08/20 03:04:14;;;;;;;22.60;16.15;;;21.50;99.90;;;;;;5067772;28;20033;-77
2023/08/20 03:06:40;;;;;;;19.77;14.85;;;21.40;99.90;;;;;;5055614;28;20433;-77
2023/08/20 03:09:06;;;;;;;23.02;14.18;;;21.40;99.90;;;;;;5068355;28;20025;-77
2023/08/20 03:11:31;;;;;;;22.23;14.55;;;21.40;99.90;;;;;;5061877;28;20533;-77
2023/08/20 03:13:57;;;;;;;16.23;14.45;;;21.30;99.90;;;;;;5063620;28;20025;-78
2023/08/20 03:16:22;;;;;;;20.02;15.82;;;21.20;99.90;;;;;;5063643;28;20025;-78
2023/08/20 03:18:48;;;;;;;16.75;12.75;;;21.20;99.90;;;;;;5061687;28;20040;-78
2023/08/20 03:21:13;;;;;;;16.30;14.55;;;21.20;99.90;;;;;;5076707;28;20432;-78
2023/08/20 03:23:39;;;;;;;17.67;14.07;;;21.20;99.90;;;;;;5066916;28;20492;-77
2023/08/20 03:26:04;;;;;;;23.40;15.68;;;21.20;99.90;;;;;;5056626;28;20027;-77
2023/08/20 03:28:30;;;;;;;19.30;15.32;;;21.20;99.90;;;;;;5052352;28;20029;-77
2023/08/20 03:31:01;;;;;;;25.40;16.83;;;21.20;99.90;;;;;;5060127;28;20540;-78
2023/08/20 03:33:26;;;;;;;18.40;15.70;;;21.20;99.90;;;;;;5061036;28;20028;-78
2023/08/20 03:35:52;;;;;;;17.50;14.27;;;21.20;99.90;;;;;;5063386;28;20028;-78
2023/08/20 03:38:17;;;;;;;24.67;15.57;;;21.20;99.90;;;;;;5064769;28;20040;-77
2023/08/20 03:40:45;;;;;;;21.23;15.23;;;21.20;99.90;;;;;;5057172;28;20400;-77
2023/08/20 03:43:10;;;;;;;16.45;12.75;;;21.20;99.90;;;;;;5067824;28;20464;-77
2023/08/20 03:45:36;;;;;;;16.77;14.25;;;21.20;99.90;;;;;;5062729;28;20040;-77
2023/08/20 03:48:01;;;;;;;20.63;15.20;;;21.30;99.90;;;;;;5058784;28;20024;-77
2023/08/20 03:50:27;;;;;;;19.77;14.77;;;21.30;99.90;;;;;;5071657;28;20062;-78
2023/08/20 03:52:52;;;;;;;19.23;14.27;;;21.20;99.90;;;;;;5069619;28;20479;-78
2023/08/20 03:55:18;;;;;;;14.00;11.82;;;21.20;99.90;;;;;;5062717;28;20035;-78
2023/08/20 03:57:43;;;;;;;21.33;14.98;;;21.20;99.90;;;;;;5071508;28;20070;-78
2023/08/20 04:00:10;;;;;;;16.60;12.20;;;21.20;99.90;;;;;;5069600;28;20017;-77
2023/08/20 04:02:35;;;;;;;15.45;11.73;;;21.20;99.90;;;;;;5062020;28;20029;-77
2023/08/20 04:05:01;;;;;;;19.38;13.98;;;21.30;99.90;;;;;;5060544;28;20024;-77
2023/08/20 04:07:26;;;;;;;14.88;12.40;;;21.40;99.90;;;;;;5065825;28;20103;-77
2023/08/20 04:09:52;;;;;;;18.60;13.38;;;21.40;99.90;;;;;;5060551;28;20025;-77
2023/08/20 04:12:17;;;;;;;14.35;11.05;;;21.40;99.90;;;;;;5059033;28;20487;-78
2023/08/20 04:14:43;;;;;;;18.00;13.20;;;21.40;99.90;;;;;;5062038;28;20091;-78
2023/08/20 04:17:08;;;;;;;14.95;13.40;;;21.40;99.90;;;;;;5058154;28;20086;-78
2023/08/20 04:19:34;;;;;;;22.88;14.88;;;21.40;99.90;;;;;;5051442;28;20040;-78
2023/08/20 04:21:59;;;;;;;19.63;13.13;;;21.40;99.90;;;;;;5067901;28;20419;-77
2023/08/20 04:24:25;;;;;;;14.45;12.20;;;21.40;99.90;;;;;;5056930;28;20064;-77
2023/08/20 04:26:51;;;;;;;18.38;12.82;;;21.40;99.90;;;;;;5060488;28;20040;-77
2023/08/20 04:29:16;;;;;;;20.25;15.77;;;21.40;99.90;;;;;;5070992;28;20059;-77
2023/08/20 04:31:41;;;;;;;12.65;11.32;;;21.50;99.90;;;;;;5068480;28;20028;-78
2023/08/20 04:34:07;;;;;;;14.98;12.07;;;21.50;99.90;;;;;;5059671;28;20070;-78
2023/08/20 04:36:33;;;;;;;17.90;14.50;;;21.60;99.90;;;;;;5056320;28;20017;-78
2023/08/20 04:38:58;;;;;;;18.08;15.77;;;21.50;99.90;;;;;;5057613;28;20059;-78
2023/08/20 04:41:24;;;;;;;17.95;14.93;;;21.50;99.90;;;;;;5068025;28;20078;-78
2023/08/20 04:43:50;;;;;;;20.95;15.98;;;21.30;99.90;;;;;;5052154;28;20086;-78
2023/08/20 04:46:15;;;;;;;26.08;15.52;;;21.10;99.90;;;;;;5064746;28;20040;-78
2023/08/20 04:48:41;;;;;;;22.25;17.48;;;21.00;99.90;;;;;;5062375;28;20021;-78
2023/08/20 04:51:07;;;;;;;21.40;16.75;;;20.90;99.90;;;;;;5071101;28;20067;-78
2023/08/20 04:53:32;;;;;;;17.05;13.65;;;20.90;99.90;;;;;;5069353;28;20563;-77
2023/08/20 04:55:59;;;;;;;16.30;13.65;;;20.90;99.90;;;;;;5061023;28;20040;-77
2023/08/20 04:58:24;;;;;;;20.10;15.90;;;21.00;99.90;;;;;;5051064;28;20020;-77
2023/08/20 05:00:50;;;;;;;17.88;13.40;;;21.20;99.90;;;;;;5054404;28;20445;-77
2023/08/20 05:03:15;;;;;;;15.85;13.13;;;21.30;99.90;;;;;;5051778;28;20439;-77
2023/08/20 05:05:41;;;;;;;20.35;15.65;;;21.30;99.90;;;;;;5057011;28;20048;-77
2023/08/20 05:08:07;;;;;;;19.08;13.07;;;21.40;99.90;;;;;;5061906;28;20629;-77
2023/08/20 05:10:36;;;;;;;15.35;13.30;;;21.40;99.90;;;;;;5065141;28;20055;-77
2023/08/20 05:13:01;;;;;;;16.33;12.85;;;21.60;99.90;;;;;;5061354;28;20379;-78
2023/08/20 05:15:27;;;;;;;16.55;14.77;;;21.60;99.90;;;;;;5054356;28;20025;-77
2023/08/20 05:17:52;;;;;;;21.70;17.58;;;21.70;99.90;;;;;;5061417;28;20495;-77
2023/08/20 05:20:18;;;;;;;17.30;14.82;;;21.70;99.90;;;;;;5058919;28;20028;-77
2023/08/20 05:22:43;;;;;;;21.00;17.40;;;21.80;99.90;;;;;;5067318;28;20032;-77
2023/08/20 05:25:09;;;;;;;17.95;14.60;;;21.90;99.90;;;;;;5063824;28;20036;-77
2023/08/20 05:27:34;;;;;;;20.60;15.73;;;22.00;99.90;;;;;;5066166;28;20036;-77
2023/08/20 05:30:00;;;;;;;16.17;13.52;;;22.00;99.90;;;;;;5072517;28;20518;-77
2023/08/20 05:32:25;;;;;;;27.58;15.57;;;22.10;99.90;;;;;;5072729;28;20032;-77
2023/08/20 05:34:51;;;;;;;23.65;15.35;;;22.40;99.90;;;;;;5072097;28;20040;-78
2023/08/20 05:37:16;;;;;;;18.83;16.08;;;22.60;99.90;;;;;;5059925;28;20025;-77
2023/08/20 05:39:43;;;;;;;22.58;15.07;;;22.50;99.90;;;;;;5064249;28;20029;-77
2023/08/20 05:42:08;;;;;;;18.10;15.50;;;22.40;99.90;;;;;;5067570;28;20025;-78
2023/08/20 05:44:34;;;;;;;18.23;14.55;;;22.30;99.90;;;;;;5067676;28;20032;-78
2023/08/20 05:47:00;;;;;;;17.23;15.32;;;22.20;99.90;;;;;;5068827;28;20483;-77
2023/08/20 05:49:26;;;;;;;17.50;14.45;;;22.30;99.90;;;;;;5072885;28;20032;-77
2023/08/20 05:51:52;;;;;;;25.10;15.45;;;22.30;99.90;;;;;;5071778;28;20021;-78
2023/08/20 05:54:18;;;;;;;17.42;14.35;;;22.40;99.90;;;;;;5067276;28;20060;-77
2023/08/20 05:56:43;;;;;;;20.75;14.18;;;22.40;99.90;;;;;;5065651;28;20070;-77
2023/08/20 05:59:09;;;;;;;17.75;14.77;;;22.40;99.90;;;;;;5066657;28;20495;-77
2023/08/20 06:01:34;;;;;;;20.60;13.60;;;22.30;99.90;;;;;;5070012;28;20629;-77
2023/08/20 06:04:01;;;;;;;19.10;11.90;;;22.20;99.90;;;;;;5068470;28;20029;-78
2023/08/20 06:06:27;;;;;;;19.17;13.98;;;22.30;99.90;;;;;;5071601;28;20506;-77
2023/08/20 06:08:52;;;;;;;16.20;11.45;;;22.40;99.90;;;;;;5069099;28;20498;-77
2023/08/20 06:11:19;;;;;;;13.85;11.82;;;22.60;99.90;;;;;;5067008;28;20056;-76
2023/08/20 06:13:45;;;;;;;17.95;11.80;;;22.70;99.90;;;;;;5067458;28;20494;-77
2023/08/20 06:16:10;;;;;;;15.90;13.85;;;22.80;99.90;;;;;;5065186;28;20037;-78
2023/08/20 06:18:36;;;;;;;24.50;16.00;;;22.80;99.90;;;;;;5069550;28;20491;-78
2023/08/20 06:21:02;;;;;;;38.10;31.27;;;22.80;99.90;;;;;;5070030;28;20048;-79
2023/08/20 06:23:28;;;;;;;19.40;12.65;;;22.80;99.90;;;;;;5069890;28;20125;-78
2023/08/20 06:25:54;;;;;;;14.70;11.02;;;22.90;99.90;;;;;;5081727;28;20104;-78
2023/08/20 06:28:19;;;;;;;15.10;11.68;;;23.00;99.90;;;;;;5076654;28;20020;-78
2023/08/20 06:30:45;;;;;;;12.98;8.25;;;23.00;99.90;;;;;;5071748;28;20021;-77
2023/08/20 06:33:11;;;;;;;11.57;8.15;;;23.10;99.90;;;;;;5066123;28;20718;-77
2023/08/20 06:35:37;;;;;;;8.55;6.78;;;23.10;99.90;;;;;;5081044;28;20017;-76
2023/08/20 06:38:03;;;;;;;8.85;6.47;;;23.10;99.90;;;;;;5071754;28;20106;-75
2023/08/20 06:40:29;;;;;;;11.52;9.55;;;23.00;99.90;;;;;;5087915;28;20048;-75
2023/08/20 06:42:54;;;;;;;16.70;8.75;;;22.80;99.90;;;;;;5072255;28;20024;-74
2023/08/20 06:45:20;;;;;;;8.52;6.70;;;22.90;99.90;;;;;;5078711;28;20422;-74
2023/08/20 06:47:45;;;;;;;18.25;9.63;;;23.00;99.90;;;;;;5063932;28;20622;-74
2023/08/20 06:50:11;;;;;;;9.38;6.90;;;23.10;99.90;;;;;;5059215;28;20107;-75
2023/08/20 06:52:37;;;;;;;15.77;7.80;;;23.30;99.90;;;;;;5060419;28;20110;-75
2023/08/20 06:55:04;;;;;;;13.32;8.60;;;23.40;99.90;;;;;;5057539;28;20028;-75
2023/08/20 06:57:29;;;;;;;9.57;7.57;;;23.50;99.90;;;;;;5056297;28;20025;-75
2023/08/20 06:59:55;;;;;;;11.55;7.22;;;23.50;99.90;;;;;;5052997;28;20832;-75
2023/08/20 07:02:20;;;;;;;8.63;7.38;;;23.50;99.90;;;;;;5056864;28;20029;-74
2023/08/20 07:04:46;;;;;;;9.63;6.78;;;23.50;99.90;;;;;;5074948;28;20463;-74
2023/08/20 07:07:12;;;;;;;10.70;6.00;;;23.60;99.90;;;;;;5073335;28;20036;-75
2023/08/20 07:09:39;;;;;;;8.90;5.88;;;23.80;99.90;;;;;;5056938;28;20028;-75
2023/08/20 07:12:05;;;;;;;7.35;6.55;;;23.90;99.90;;;;;;5058837;28;20020;-75
2023/08/20 07:14:30;;;;;;;6.72;5.10;;;24.00;99.90;;;;;;5072269;28;20024;-75
2023/08/20 07:16:56;;;;;;;9.40;5.75;;;24.10;99.90;;;;;;5076266;28;20021;-75
2023/08/20 07:19:21;;;;;;;8.40;5.85;;;24.10;99.90;;;;;;5072253;28;20032;-75
2023/08/20 07:21:47;;;;;;;6.72;4.60;;;24.00;99.90;;;;;;5067395;28;20033;-75
2023/08/20 07:24:13;;;;;;;8.75;5.57;;;23.90;99.90;;;;;;5072153;28;20406;-75
2023/08/20 07:26:38;;;;;;;7.60;5.20;;;24.00;99.90;;;;;;5071315;28;20521;-75
2023/08/20 07:29:04;;;;;;;8.63;6.10;;;24.10;99.90;;;;;;5071915;28;20483;-75
2023/08/20 07:31:32;;;;;;;10.15;6.32;;;24.20;99.90;;;;;;5070736;28;20031;-74
2023/08/20 07:33:59;;;;;;;6.97;5.93;;;24.30;99.90;;;;;;5068724;28;20055;-74
2023/08/20 07:36:26;;;;;;;8.43;6.65;;;24.40;99.90;;;;;;5065027;28;20034;-74
2023/08/20 07:38:53;;;;;;;9.77;6.45;;;24.40;99.90;;;;;;5069890;28;20029;-75
2023/08/20 07:41:19;;;;;;;9.60;6.70;;;24.40;99.90;;;;;;5069951;28;20032;-75
2023/08/20 07:43:46;;;;;;;8.23;5.93;;;24.40;99.90;;;;;;5066989;28;20043;-75
2023/08/20 07:46:12;;;;;;;8.32;6.40;;;24.50;99.90;;;;;;5067519;28;20029;-74
2023/08/20 07:48:37;;;;;;;11.35;7.65;;;24.50;99.90;;;;;;5064237;28;20543;-75
2023/08/20 07:51:03;;;;;;;13.93;7.68;;;24.60;99.90;;;;;;5062633;28;20392;-75
2023/08/20 07:53:29;;;;;;;12.52;7.15;;;24.70;99.90;;;;;;5068566;28;20025;-75
2023/08/20 07:55:55;;;;;;;8.65;5.38;;;24.60;99.90;;;;;;5068229;28;20025;-76
2023/08/20 07:58:21;;;;;;;8.02;5.97;;;24.70;99.90;;;;;;5064418;28;20391;-75
2023/08/20 08:00:46;;;;;;;6.88;4.95;;;24.70;99.90;;;;;;5060232;28;20036;-75
2023/08/20 08:03:14;;;;;;;7.00;4.68;;;24.80;99.90;;;;;;5065106;28;20062;-75
2023/08/20 08:05:40;;;;;;;6.03;5.20;;;25.00;99.90;;;;;;5069182;28;20032;-75
2023/08/20 08:08:06;;;;;;;5.15;4.65;;;25.00;99.90;;;;;;5062526;28;20025;-76
2023/08/20 08:10:31;;;;;;;6.65;5.03;;;25.00;99.90;;;;;;5060010;28;20032;-76
2023/08/20 08:12:57;;;;;;;6.72;4.88;;;25.00;99.90;;;;;;5058631;28;20112;-75
2023/08/20 08:15:22;;;;;;;8.73;5.07;;;25.20;99.90;;;;;;5075684;28;20605;-75
2023/08/20 08:17:48;;;;;;;7.38;5.55;;;25.40;99.90;;;;;;5064314;28;20029;-75
2023/08/20 08:20:13;;;;;;;8.13;4.88;;;25.50;99.90;;;;;;5059954;28;20039;-75
2023/08/20 08:22:39;;;;;;;7.07;4.85;;;25.40;99.90;;;;;;5077281;28;20018;-75
2023/08/20 08:25:05;;;;;;;4.80;3.92;;;25.40;99.90;;;;;;5060773;28;20489;-75
2023/08/20 08:27:31;;;;;;;6.13;3.63;;;25.50;99.90;;;;;;5059838;28;20096;-75
2023/08/20 08:29:57;;;;;;;5.88;4.25;;;25.60;99.70;;;;;;5062607;28;20021;-75
2023/08/20 08:32:22;;;;;;;5.00;3.58;;;25.60;99.50;;;;;;5058041;28;20369;-75
2023/08/20 08:34:48;;;;;;;5.53;3.83;;;25.50;99.20;;;;;;5060847;28;20056;-75
2023/08/20 08:37:15;;;;;;;5.88;4.60;;;25.60;99.50;;;;;;5058680;28;20027;-75
2023/08/20 08:39:41;;;;;;;4.97;3.78;;;25.70;99.80;;;;;;5055030;28;20043;-75
2023/08/20 08:42:07;;;;;;;6.35;3.33;;;25.90;99.90;;;;;;5058007;28;20021;-75
2023/08/20 08:44:33;;;;;;;8.35;3.47;;;26.10;99.60;;;;;;5062801;28;20036;-74
2023/08/20 08:46:59;;;;;;;5.68;4.25;;;26.30;99.10;;;;;;5065015;28;20129;-74
2023/08/20 08:49:30;;;;;;;5.32;3.22;;;26.40;97.90;;;;;;5063767;28;20511;-75
2023/08/20 08:51:59;;;;;;;4.20;2.95;;;26.50;98.10;;;;;;5064721;28;20147;-76
2023/08/20 08:54:26;;;;;;;4.05;3.15;;;26.50;97.70;;;;;;5066284;28;20036;-76
2023/08/20 08:56:51;;;;;;;7.93;4.10;;;26.40;96.90;;;;;;5065192;28;20035;-76
2023/08/20 08:59:17;;;;;;;4.95;2.90;;;26.30;97.40;;;;;;5062555;28;20032;-76
2023/08/20 09:01:43;;;;;;;7.88;3.63;;;26.30;97.20;;;;;;5063587;28;20029;-75
2023/08/20 09:04:08;;;;;;;4.30;2.90;;;26.40;97.40;;;;;;5059280;28;20491;-75
2023/08/20 09:06:51;;;;;;;5.88;2.70;;;26.40;96.70;;;;;;5060817;28;20032;-75
2023/08/20 09:09:18;;;;;;;7.93;2.65;;;26.40;96.90;;;;;;5059902;28;20115;-75
2023/08/20 09:11:44;;;;;;;5.40;2.67;;;26.60;96.50;;;;;;5064060;28;20017;-75
2023/08/20 09:14:29;;;;;;;3.40;2.22;;;26.60;96.50;;;;;;5060682;28;20020;-74
2023/08/20 09:16:59;;;;;;;6.03;3.60;;;26.60;96.60;;;;;;5057893;28;20025;-73
2023/08/20 09:19:30;;;;;;;7.68;2.97;;;26.70;96.00;;;;;;5064936;28;20028;-75
2023/08/20 09:21:58;;;;;;;3.47;2.25;;;26.70;95.50;;;;;;5068339;28;20030;-75
2023/08/20 09:24:32;;;;;;;4.25;2.72;;;26.50;95.40;;;;;;5071228;28;20024;-75
2023/08/20 09:27:01;;;;;;;3.90;2.35;;;26.30;95.00;;;;;;5065712;28;20028;-75
2023/08/20 09:29:26;;;;;;;4.07;2.33;;;26.20;95.50;;;;;;5065887;28;20032;-75
2023/08/20 09:32:00;;;;;;;9.15;3.10;;;26.20;95.60;;;;;;5063335;28;20025;-75
2023/08/20 09:34:27;;;;;;;6.15;2.75;;;26.30;95.70;;;;;;5065369;28;20028;-75
2023/08/20 09:36:52;;;;;;;4.20;2.08;;;26.50;96.10;;;;;;5061183;28;20028;-75
2023/08/20 09:39:18;;;;;;;3.25;2.63;;;26.50;96.20;;;;;;5071800;28;20418;-75
2023/08/20 09:41:46;;;;;;;6.30;2.67;;;26.70;95.70;;;;;;5068529;28;20551;-75
2023/08/20 09:44:14;;;;;;;4.32;2.88;;;26.90;96.00;;;;;;5067934;28;20056;-76
2023/08/20 09:46:41;;;;;;;5.65;2.78;;;27.10;95.80;;;;;;5075040;28;20106;-75
2023/08/20 09:49:09;;;;;;;2.88;1.73;;;27.30;95.60;;;;;;5061707;28;20368;-75
2023/08/20 09:51:36;;;;;;;4.95;2.13;;;27.30;94.50;;;;;;5062666;28;20126;-75
2023/08/20 09:54:19;;;;;;;4.13;2.55;;;27.10;94.30;;;;;;5065326;28;20479;-75
2023/08/20 09:56:50;;;;;;;3.60;2.15;;;27.00;94.30;;;;;;5064646;28;20602;-76
2023/08/20 09:59:17;;;;;;;6.28;2.58;;;26.90;93.70;;;;;;5067592;28;20029;-76
2023/08/20 10:01:43;;;;;;;3.33;1.73;;;26.90;94.00;;;;;;5067151;28;20549;-76
2023/08/20 10:04:09;;;;;;;2.67;2.10;;;26.90;93.40;;;;;;5067229;28;20028;-76
2023/08/20 10:06:36;;;;;;;3.30;2.40;;;26.90;93.80;;;;;;5064638;28;20021;-75
2023/08/20 10:09:02;;;;;;;4.35;2.50;;;27.00;94.00;;;;;;5060851;28;20024;-75
2023/08/20 10:11:28;;;;;;;3.47;1.90;;;27.20;93.90;;;;;;5066050;28;20073;-74
2023/08/20 10:13:54;;;;;;;4.65;2.30;;;27.30;94.20;;;;;;5072966;28;20031;-73
2023/08/20 10:16:21;;;;;;;2.53;2.20;;;27.50;93.70;;;;;;5063209;28;20033;-72
2023/08/20 10:18:47;;;;;;;3.85;1.75;;;27.40;92.10;;;;;;5076058;28;20035;-73
2023/08/20 10:21:13;;;;;;;2.92;1.70;;;27.30;92.60;;;;;;5073872;28;20391;-73
2023/08/20 10:23:44;;;;;;;7.65;2.30;;;27.20;93.40;;;;;;5074054;28;20463;-73
2023/08/20 10:26:10;;;;;;;4.32;2.28;;;27.30;93.00;;;;;;5073701;28;20021;-74
2023/08/20 10:28:36;;;;;;;4.32;3.92;;;27.50;93.20;;;;;;5073890;28;20020;-73
2023/08/20 10:31:10;;;;;;;5.82;3.10;;;27.80;93.50;;;;;;5073518;28;20368;-73
2023/08/20 10:33:55;;;;;;;5.95;2.08;;;28.00;92.90;;;;;;5073961;28;20096;-72
2023/08/20 10:36:25;;;;;;;3.15;1.70;;;28.20;92.00;;;;;;5082866;28;20033;-73
2023/08/20 10:38:55;;;;;;;4.55;1.60;;;28.10;91.50;;;;;;5093810;28;20040;-74
2023/08/20 10:41:28;;;;;;;5.07;1.60;;;28.10;90.50;;;;;;5093603;28;20032;-73
2023/08/20 10:43:58;;;;;;;3.38;1.63;;;28.00;90.60;;;;;;5083366;28;20510;-73
2023/08/20 10:46:25;;;;;;;2.72;1.92;;;28.00;91.00;;;;;;5073696;28;20040;-73
2023/08/20 10:48:53;;;;;;;4.68;2.33;;;28.10;91.30;;;;;;5073937;28;20017;-74
2023/08/20 10:51:24;;;;;;;5.00;1.88;;;28.40;91.20;;;;;;5084143;28;20028;-74
2023/08/20 10:54:02;;;;;;;2.90;1.48;;;28.40;89.20;;;;;;5071061;28;20029;-74
2023/08/20 10:56:43;;;;;;;2.63;1.70;;;28.30;90.40;;;;;;5084320;28;20454;-73
2023/08/20 10:59:16;;;;;;;3.65;1.50;;;28.30;89.90;;;;;;5092016;28;20027;-73
2023/08/20 11:01:49;;;;;;;2.95;1.88;;;28.30;89.10;;;;;;5094303;28;20145;-73
2023/08/20 11:04:16;;;;;;;2.13;1.70;;;28.30;89.60;;;;;;5093524;28;20376;-73
2023/08/20 11:06:42;;;;;;;2.33;1.38;;;28.30;89.00;;;;;;5080362;28;20027;-73
2023/08/20 11:09:07;;;;;;;2.20;1.33;;;28.50;88.50;;;;;;5080584;28;20051;-73
2023/08/20 11:11:33;;;;;;;3.17;1.50;;;28.60;86.80;;;;;;5073582;28;20467;-73
2023/08/20 11:14:07;;;;;;;2.90;1.52;;;28.70;86.70;;;;;;5072265;28;20035;-73
2023/08/20 11:16:34;;;;;;;3.75;1.63;;;28.70;87.00;;;;;;5065297;28;20052;-74
2023/08/20 11:18:59;;;;;;;2.10;1.45;;;28.70;86.10;;;;;;5081899;28;20025;-73
2023/08/20 11:21:25;;;;;;;2.95;1.38;;;28.70;83.90;;;;;;5073139;28;20441;-74
2023/08/20 11:23:51;;;;;;;6.03;1.50;;;28.50;84.40;;;;;;5072380;28;20494;-74
2023/08/20 11:26:18;;;;;;;3.72;1.83;;;28.40;85.00;;;;;;5079613;28;20382;-74
2023/08/20 11:28:47;;;;;;;2.83;1.40;;;28.50;84.40;;;;;;5072563;28;20111;-74
2023/08/20 11:31:12;;;;;;;4.10;1.90;;;28.40;85.00;;;;;;5073512;28;20028;-73
2023/08/20 11:33:38;;;;;;;3.10;1.33;;;28.50;85.70;;;;;;5071505;28;20016;-73
2023/08/20 11:36:05;;;;;;;3.97;2.20;;;28.70;86.30;;;;;;5081456;28;20095;-74
2023/08/20 11:38:31;;;;;;;3.78;1.73;;;28.80;86.00;;;;;;5092808;28;20031;-73
2023/08/20 11:40:59;;;;;;;3.90;1.75;;;29.00;87.60;;;;;;5082695;28;20394;-74
2023/08/20 11:43:28;;;;;;;6.95;1.95;;;29.10;87.10;;;;;;5075279;28;20146;-74
2023/08/20 11:45:54;;;;;;;2.05;1.65;;;29.20;85.60;;;;;;5074239;28;20029;-74
2023/08/20 11:48:23;;;;;;;4.00;1.50;;;29.20;84.40;;;;;;5072358;28;20505;-74
2023/08/20 11:50:52;;;;;;;3.80;2.78;;;29.20;83.00;;;;;;5076793;28;20031;-74
2023/08/20 11:53:24;;;;;;;5.03;1.90;;;29.30;82.70;;;;;;5084671;28;20024;-73
2023/08/20 11:55:50;;;;;;;3.10;1.65;;;29.10;81.20;;;;;;5092962;28;20020;-74
2023/08/20 11:58:18;;;;;;;2.25;2.05;;;28.90;82.10;;;;;;5076633;28;20078;-73
2023/08/20 12:00:50;;;;;;;2.65;1.45;;;28.80;82.00;;;;;;5076930;28;20062;-73
2023/08/20 12:03:17;;;;;;;3.67;1.70;;;28.70;82.30;;;;;;5074342;28;20065;-73
2023/08/20 12:05:43;;;;;;;2.85;2.17;;;28.70;82.90;;;;;;5070426;28;20055;-73
2023/08/20 12:08:14;;;;;;;2.40;1.75;;;28.90;83.00;;;;;;5080647;28;20482;-73
2023/08/20 12:10:42;;;;;;;1.55;1.45;;;29.10;82.30;;;;;;5069136;28;20047;-73
2023/08/20 12:13:08;;;;;;;3.92;2.35;;;29.30;82.90;;;;;;5076710;28;20019;-73
2023/08/20 12:15:33;;;;;;;2.47;2.10;;;29.40;81.30;;;;;;5067837;28;20024;-73
2023/08/20 12:18:04;;;;;;;3.08;1.63;;;29.30;79.90;;;;;;5082888;28;20017;-73
2023/08/20 12:20:31;;;;;;;1.80;1.50;;;29.30;81.40;;;;;;5081713;28;20025;-73
2023/08/20 12:23:05;;;;;;;3.05;1.50;;;29.40;81.30;;;;;;5092829;28;20035;-74
2023/08/20 12:25:33;;;;;;;2.63;2.13;;;29.30;80.40;;;;;;5092576;28;20420;-73
2023/08/20 12:27:59;;;;;;;4.68;1.75;;;29.30;81.10;;;;;;5092561;28;20501;-74
2023/08/20 12:30:25;;;;;;;5.28;2.13;;;29.30;80.20;;;;;;5081030;28;20044;-73
2023/08/20 12:32:50;;;;;;;6.88;1.88;;;29.30;81.10;;;;;;5078777;28;20013;-73